createdAt,value
2022-08-07T00:01:43.781Z,89.58
2022-08-07T00:04:09.324Z,89.90
2022-08-07T00:06:37.344Z,90.45
2022-08-07T00:09:22.732Z,90.09
2022-08-07T00:11:55.959Z,90.19
2022-08-07T00:14:30.963Z,90.92
2022-08-07T00:17:02.632Z,91.00
2022-08-07T00:19:59.955Z,90.98
2022-08-07T00:22:24.690Z,90.31
2022-08-07T00:25:16.617Z,90.38
2022-08-07T00:27:53.749Z,91.80
2022-08-07T00:30:27.426Z,92.15
2022-08-07T00:32:58.930Z,92.47
2022-08-07T00:35:29.957Z,92.89
2022-08-07T00:38:00.431Z,92.73
2022-08-07T00:40:36.370Z,93.59
2022-08-07T00:44:01.433Z,93.71
2022-08-07T00:46:02.173Z,94.31
2022-08-07T00:48:32.363Z,94.39
2022-08-07T00:51:02.873Z,94.58
2022-08-07T00:53:38.498Z,95.28
2022-08-07T00:56:13.790Z,95.39
2022-08-07T00:58:43.925Z,96.13
2022-08-07T01:01:16.919Z,96.48
2022-08-07T01:03:54.696Z,95.93
2022-08-07T01:06:25.380Z,96.26
2022-08-07T01:08:55.533Z,96.95
2022-08-07T01:12:27.909Z,97.29
2022-08-07T01:14:12.705Z,97.08
2022-08-07T01:16:47.239Z,96.82
2022-08-07T01:19:19.784Z,96.57
2022-08-07T01:21:55.382Z,97.43
2022-08-07T01:24:30.652Z,97.18
2022-08-07T01:27:01.315Z,97.67
2022-08-07T01:29:33.780Z,97.46
2022-08-07T01:32:05.515Z,98.79
2022-08-07T01:34:44.533Z,98.55
2022-08-07T01:37:17.381Z,99.21
2022-08-07T01:39:48.804Z,99.50
2022-08-07T01:42:38.686Z,99.88
2022-08-07T01:45:18.196Z,99.29
2022-08-07T01:48:17.626Z,99.41
2022-08-07T01:50:47.145Z,99.56
2022-08-07T01:54:00.706Z,100.00
2022-08-07T01:56:23.942Z,100.00
2022-08-07T01:59:19.554Z,100.00
2022-08-07T02:02:02.762Z,100.00
2022-08-07T02:04:56.593Z,100.00
2022-08-07T02:07:50.237Z,100.00
2022-08-07T02:10:27.807Z,100.00
2022-08-07T02:13:01.693Z,100.00
2022-08-07T02:15:40.011Z,100.00
2022-08-07T02:18:13.146Z,100.00
2022-08-07T02:20:48.684Z,100.00
2022-08-07T02:23:23.901Z,100.00
2022-08-07T02:26:31.542Z,100.00
2022-08-07T02:28:47.310Z,100.00
2022-08-07T02:31:28.220Z,100.00
2022-08-07T02:34:03.017Z,100.00
2022-08-07T02:36:36.934Z,100.00
2022-08-07T02:39:17.518Z,100.00
2022-08-07T02:42:03.402Z,100.00
2022-08-07T02:44:48.067Z,100.00
2022-08-07T02:47:19.852Z,100.00
2022-08-07T02:49:58.932Z,100.00
2022-08-07T02:52:41.392Z,100.00
2022-08-07T02:56:03.915Z,100.00
2022-08-07T02:58:23.349Z,100.00
2022-08-07T03:00:59.366Z,100.00
2022-08-07T03:03:48.955Z,100.00
2022-08-07T03:06:25.869Z,100.00
2022-08-07T03:09:11.306Z,100.00
2022-08-07T03:11:51.601Z,100.00
2022-08-07T03:14:22.651Z,100.00
2022-08-07T03:16:52.354Z,100.00
2022-08-07T03:19:20.929Z,100.00
2022-08-07T03:21:51.310Z,100.00
2022-08-07T03:24:26.968Z,100.00
2022-08-07T03:27:03.629Z,100.00
2022-08-07T03:29:52.399Z,100.00
2022-08-07T03:32:33.338Z,100.00
2022-08-07T03:35:17.639Z,100.00
2022-08-07T03:37:56.475Z,100.00
2022-08-07T03:40:31.077Z,100.00
2022-08-07T03:43:10.086Z,100.00
2022-08-07T03:45:47.662Z,100.00
2022-08-07T03:48:18.415Z,100.00
2022-08-07T03:50:55.883Z,100.00
2022-08-07T03:54:00.724Z,100.00
2022-08-07T03:56:33.131Z,100.00
2022-08-07T03:59:09.803Z,100.00
2022-08-07T04:01:46.749Z,100.00
2022-08-07T04:04:19.120Z,100.00
2022-08-07T04:06:53.335Z,100.00
2022-08-07T04:09:24.412Z,100.00
2022-08-07T04:12:25.887Z,100.00
2022-08-07T04:14:48.969Z,100.00
2022-08-07T04:17:21.123Z,100.00
2022-08-07T04:19:51.771Z,100.00
2022-08-07T04:22:29.659Z,100.00
2022-08-07T04:25:08.916Z,100.00
2022-08-07T04:27:44.317Z,100.00
2022-08-07T04:30:21.719Z,100.00
2022-08-07T04:33:15.449Z,100.00
2022-08-07T04:35:51.055Z,100.00
2022-08-07T04:38:23.026Z,100.00
2022-08-07T04:40:52.796Z,100.00
2022-08-07T04:44:12.215Z,100.00
2022-08-07T04:46:59.266Z,100.00
2022-08-07T04:50:03.653Z,100.00
2022-08-07T04:53:03.771Z,100.00
2022-08-07T04:58:14.633Z,100.00
2022-08-07T05:00:12.729Z,100.00
2022-08-07T05:02:43.404Z,100.00
2022-08-07T05:05:52.765Z,100.00
2022-08-07T05:09:18.862Z,100.00
2022-08-07T05:12:10.803Z,100.00
2022-08-07T05:14:56.261Z,100.00
2022-08-07T05:17:52.123Z,100.00
2022-08-07T05:20:39.913Z,100.00
2022-08-07T05:23:50.138Z,100.00
2022-08-07T05:26:25.938Z,100.00
2022-08-07T05:29:04.901Z,100.00
2022-08-07T05:31:40.154Z,100.00
2022-08-07T05:34:19.912Z,100.00
2022-08-07T05:36:55.934Z,100.00
2022-08-07T05:40:14.302Z,100.00
2022-08-07T05:42:37.013Z,100.00
2022-08-07T05:45:25.930Z,100.00
2022-08-07T05:48:05.736Z,100.00
2022-08-07T05:50:43.309Z,100.00
2022-08-07T05:54:09.429Z,100.00
2022-08-07T05:56:06.111Z,100.00
2022-08-07T05:58:41.227Z,99.89
2022-08-07T06:01:20.838Z,100.00
2022-08-07T06:03:58.573Z,99.49
2022-08-07T06:06:32.566Z,98.51
2022-08-07T06:09:05.006Z,98.65
2022-08-07T06:11:36.020Z,98.06
2022-08-07T06:14:13.379Z,97.95
2022-08-07T06:16:56.210Z,97.17
2022-08-07T06:19:52.353Z,96.92
2022-08-07T06:22:23.779Z,95.17
2022-08-07T06:25:01.784Z,95.40
2022-08-07T06:27:43.937Z,94.78
2022-08-07T06:30:24.151Z,94.71
2022-08-07T06:33:04.870Z,93.83
2022-08-07T06:35:45.318Z,92.14
2022-08-07T06:38:20.205Z,92.21
2022-08-07T06:40:56.105Z,90.44
2022-08-07T06:43:39.761Z,90.16
2022-08-07T06:46:15.472Z,89.96
2022-08-07T06:49:04.389Z,89.94
2022-08-07T06:51:49.535Z,89.62
2022-08-07T06:55:32.411Z,88.21
2022-08-07T06:57:13.621Z,88.37
2022-08-07T07:00:12.995Z,87.67
2022-08-07T07:02:53.391Z,86.41
2022-08-07T07:06:02.440Z,84.61
2022-08-07T07:08:18.641Z,82.91
2022-08-07T07:10:56.652Z,83.30
2022-08-07T07:13:58.357Z,82.09
2022-08-07T07:16:39.053Z,81.49
2022-08-07T07:19:57.876Z,82.01
2022-08-07T07:22:37.024Z,80.14
2022-08-07T07:26:30.660Z,77.69
2022-08-07T07:28:42.036Z,77.22
2022-08-07T07:31:26.002Z,77.54
2022-08-07T07:34:08.373Z,76.06
2022-08-07T07:36:41.844Z,75.49
2022-08-07T07:39:17.829Z,73.64
2022-08-07T07:42:12.865Z,75.00
2022-08-07T07:44:45.190Z,73.05
2022-08-07T07:47:23.097Z,72.45
2022-08-07T07:50:33.100Z,72.07
2022-08-07T07:52:46.929Z,71.63
2022-08-07T07:55:18.430Z,71.65
2022-08-07T07:57:54.019Z,71.99
2022-08-07T08:00:29.696Z,70.57
2022-08-07T08:04:06.090Z,71.72
2022-08-07T08:06:06.932Z,72.03
2022-08-07T08:08:43.027Z,69.11
2022-08-07T08:11:16.621Z,66.58
2022-08-07T08:13:59.708Z,66.42
2022-08-07T08:16:50.268Z,66.26
2022-08-07T08:20:18.311Z,65.52
2022-08-07T08:22:34.278Z,66.63
2022-08-07T08:25:27.041Z,66.47
2022-08-07T08:28:37.257Z,64.69
2022-08-07T08:31:15.798Z,63.75
2022-08-07T08:33:49.283Z,63.71
2022-08-07T08:36:25.468Z,63.41
2022-08-07T08:39:01.901Z,62.30
2022-08-07T08:41:59.747Z,61.74
2022-08-07T08:45:58.934Z,58.01
2022-08-07T08:49:07.172Z,57.58
2022-08-07T08:52:13.052Z,56.47
2022-08-07T08:55:21.200Z,54.41
2022-08-07T08:58:28.725Z,50.92
2022-08-07T09:01:29.561Z,49.28
2022-08-07T09:04:25.733Z,47.90
2022-08-07T09:07:14.220Z,46.86
2022-08-07T09:10:14.662Z,47.64
2022-08-07T09:13:36.979Z,46.03
2022-08-07T09:16:30.773Z,44.85
2022-08-07T09:19:51.589Z,44.25
2022-08-07T09:24:28.543Z,42.84
2022-08-07T09:25:58.632Z,41.50
2022-08-07T09:30:02.368Z,42.03
2022-08-07T09:32:17.192Z,39.75
2022-08-07T09:36:04.846Z,39.89
2022-08-07T09:38:12.014Z,39.67
2022-08-07T09:41:36.469Z,37.25
2022-08-07T09:47:27.512Z,38.29
2022-08-07T09:48:19.562Z,37.34
2022-08-07T09:52:10.949Z,35.83
2022-08-07T09:54:34.294Z,35.34
2022-08-07T09:57:32.985Z,35.57
2022-08-07T10:00:16.226Z,35.30
2022-08-07T10:04:06.293Z,35.98
2022-08-07T10:07:24.575Z,34.33
2022-08-07T10:11:00.188Z,36.13
2022-08-07T10:14:02.348Z,35.45
2022-08-07T10:18:00.785Z,36.93
2022-08-07T10:21:19.515Z,37.65
2022-08-07T10:24:52.125Z,37.62
2022-08-07T10:27:59.257Z,36.71
2022-08-07T10:31:11.016Z,37.36
2022-08-07T10:34:18.158Z,37.89
2022-08-07T10:37:13.921Z,36.66
2022-08-07T10:40:12.730Z,35.85
2022-08-07T10:43:07.241Z,34.84
2022-08-07T10:45:57.648Z,33.75
2022-08-07T10:49:02.382Z,33.51
2022-08-07T10:52:01.653Z,33.31
2022-08-07T10:55:36.985Z,32.72
2022-08-07T10:58:36.772Z,31.33
2022-08-07T11:01:35.873Z,30.72
2022-08-07T11:04:59.587Z,29.33
2022-08-07T11:08:18.374Z,29.63
2022-08-07T11:11:29.630Z,28.98
2022-08-07T11:14:57.003Z,29.10
2022-08-07T11:17:56.598Z,28.81
2022-08-07T11:21:07.747Z,28.91
2022-08-07T11:24:10.145Z,28.59
2022-08-07T11:28:01.286Z,29.54
2022-08-07T11:31:00.463Z,29.68
2022-08-07T11:34:06.458Z,28.46
2022-08-07T11:37:57.399Z,27.83
2022-08-07T11:40:51.682Z,28.26
2022-08-07T11:43:54.556Z,29.61
2022-08-07T11:47:56.450Z,29.98
2022-08-07T11:51:41.588Z,30.45
2022-08-07T11:54:37.362Z,31.13
2022-08-07T11:57:59.665Z,31.44
2022-08-07T12:01:05.258Z,32.86
2022-08-07T12:04:59.474Z,32.63
2022-08-07T12:07:53.743Z,33.46
2022-08-07T12:11:20.811Z,33.84
2022-08-07T12:13:58.142Z,33.49
2022-08-07T12:16:46.744Z,34.04
2022-08-07T12:20:09.475Z,34.07
2022-08-07T12:24:05.982Z,34.82
2022-08-07T12:26:49.162Z,34.32
2022-08-07T12:29:38.234Z,33.92
2022-08-07T12:32:22.106Z,33.65
2022-08-07T12:34:56.330Z,34.72
2022-08-07T12:38:09.085Z,34.92
2022-08-07T12:40:46.388Z,35.58
2022-08-07T12:44:02.038Z,35.54
2022-08-07T12:46:57.670Z,35.13
2022-08-07T12:50:38.568Z,34.62
2022-08-07T12:54:23.762Z,35.23
2022-08-07T12:56:51.504Z,35.37
2022-08-07T12:59:53.996Z,35.12
2022-08-07T13:03:27.132Z,35.05
2022-08-07T13:07:01.034Z,34.77
2022-08-07T13:10:28.328Z,34.70
2022-08-07T13:13:48.864Z,34.67
2022-08-07T13:16:52.854Z,34.44
2022-08-07T13:19:52.780Z,33.80
2022-08-07T13:22:56.294Z,34.25
2022-08-07T13:26:00.832Z,34.11
2022-08-07T13:28:50.011Z,33.90
2022-08-07T13:31:54.826Z,33.90
2022-08-07T13:34:57.599Z,33.57
2022-08-07T13:38:02.492Z,33.31
2022-08-07T13:40:46.996Z,32.34
2022-08-07T13:43:21.627Z,31.63
2022-08-07T13:46:12.156Z,29.25
2022-08-07T13:48:59.372Z,29.43
2022-08-07T13:52:05.616Z,28.97
2022-08-07T13:54:23.601Z,28.25
2022-08-07T13:56:59.705Z,27.18
2022-08-07T13:59:34.375Z,26.64
2022-08-07T14:02:15.186Z,26.52
2022-08-07T14:04:54.428Z,25.18
2022-08-07T14:07:28.835Z,25.23
2022-08-07T14:10:16.344Z,24.24
2022-08-07T14:13:02.802Z,24.63
2022-08-07T14:15:51.899Z,24.30
2022-08-07T14:18:56.961Z,24.40
2022-08-07T14:22:02.445Z,22.88
2022-08-07T14:24:48.342Z,22.57
2022-08-07T14:28:12.426Z,22.77
2022-08-07T14:30:16.276Z,21.85
2022-08-07T14:33:04.614Z,21.35
2022-08-07T14:35:45.307Z,22.18
2022-08-07T14:38:30.905Z,22.31
2022-08-07T14:41:14.940Z,21.21
2022-08-07T14:43:55.712Z,21.24
2022-08-07T14:46:32.009Z,22.61
2022-08-07T14:49:17.294Z,22.33
2022-08-07T14:52:03.861Z,21.86
2022-08-07T15:05:20.644Z,23.24
2022-08-07T15:10:58.640Z,24.82
2022-08-07T15:13:36.723Z,23.91
2022-08-07T15:16:14.611Z,23.69
2022-08-07T15:18:55.059Z,22.19
2022-08-07T15:21:44.345Z,23.16
2022-08-07T15:27:34.276Z,22.46
2022-08-07T15:30:16.400Z,22.60
2022-08-07T15:33:01.211Z,23.08
2022-08-07T15:36:00.346Z,23.14
2022-08-07T15:42:44.581Z,23.60
2022-08-07T15:44:17.260Z,23.54
2022-08-07T15:46:52.670Z,22.73
2022-08-07T15:50:06.460Z,24.24
2022-08-07T15:52:30.603Z,25.07
2022-08-07T15:55:04.479Z,25.31
2022-08-07T15:57:48.860Z,25.27
2022-08-07T16:00:31.989Z,26.07
2022-08-07T16:03:46.649Z,26.48
2022-08-07T16:06:12.716Z,27.40
2022-08-07T16:08:47.460Z,27.52
2022-08-07T16:11:46.923Z,28.54
2022-08-07T16:15:54.898Z,28.47
2022-08-07T16:19:03.039Z,30.68
2022-08-07T16:22:36.095Z,31.64
2022-08-07T16:25:52.549Z,31.80
2022-08-07T16:30:06.825Z,32.34
2022-08-07T16:32:00.691Z,33.16
2022-08-07T16:34:55.420Z,33.66
2022-08-07T16:38:03.754Z,34.47
2022-08-07T16:41:22.253Z,35.56
2022-08-07T16:44:40.350Z,35.26
2022-08-07T16:47:51.593Z,35.61
2022-08-07T16:51:21.559Z,34.89
2022-08-07T16:54:23.202Z,35.13
2022-08-07T16:58:00.999Z,35.62
2022-08-07T17:00:29.585Z,35.64
2022-08-07T17:04:00.012Z,36.09
2022-08-07T17:07:08.632Z,35.70
2022-08-07T17:10:06.347Z,35.84
2022-08-07T17:13:16.998Z,36.58
2022-08-07T17:15:56.972Z,36.13
2022-08-07T17:18:40.622Z,37.04
2022-08-07T17:21:52.285Z,37.16
2022-08-07T17:25:10.177Z,37.21
2022-08-07T17:28:09.600Z,37.37
2022-08-07T17:30:58.136Z,37.60
2022-08-07T17:34:09.924Z,37.73
2022-08-07T17:36:57.610Z,36.96
2022-08-07T17:39:57.677Z,37.04
2022-08-07T17:42:59.460Z,36.54
2022-08-07T17:45:42.208Z,36.24
2022-08-07T17:48:31.237Z,36.90
2022-08-07T17:51:06.270Z,36.96
2022-08-07T17:54:06.535Z,37.28
2022-08-07T17:57:18.908Z,38.04
2022-08-07T18:00:11.263Z,38.30
2022-08-07T18:02:58.669Z,38.79
2022-08-07T18:06:03.280Z,39.08
2022-08-07T18:09:02.065Z,39.52
2022-08-07T18:12:07.902Z,40.04
2022-08-07T18:14:55.788Z,40.06
2022-08-07T18:18:46.178Z,40.39
2022-08-07T18:21:58.336Z,40.96
2022-08-07T18:24:34.443Z,41.17
2022-08-07T18:28:34.141Z,41.29
2022-08-07T18:31:11.235Z,41.59
2022-08-07T18:34:53.423Z,41.85
2022-08-07T18:38:55.946Z,42.53
2022-08-07T18:42:13.049Z,42.73
2022-08-07T18:45:39.758Z,43.27
2022-08-07T18:50:30.174Z,43.92
2022-08-07T18:52:35.267Z,44.53
2022-08-07T18:55:40.567Z,45.13
2022-08-07T18:58:38.310Z,45.76
2022-08-07T19:02:18.036Z,46.27
2022-08-07T19:05:15.575Z,46.98
2022-08-07T19:08:18.673Z,47.60
2022-08-07T19:11:15.488Z,47.86
2022-08-07T19:14:36.485Z,48.32
2022-08-07T19:18:00.863Z,49.18
2022-08-07T19:20:29.595Z,49.77
2022-08-07T19:23:59.134Z,49.94
2022-08-07T19:26:29.495Z,50.40
2022-08-07T19:30:55.946Z,50.73
2022-08-07T19:32:18.046Z,51.31
2022-08-07T19:35:01.446Z,52.17
2022-08-07T19:37:55.486Z,52.41
2022-08-07T19:40:30.437Z,53.02
2022-08-07T19:42:59.197Z,53.28
2022-08-07T19:46:01.207Z,54.01
2022-08-07T19:48:29.851Z,54.61
2022-08-07T19:51:19.944Z,55.14
2022-08-07T19:54:31.809Z,55.31
2022-08-07T19:57:51.305Z,56.31
2022-08-07T19:59:42.154Z,56.50
2022-08-07T20:02:29.034Z,57.02
2022-08-07T20:05:00.512Z,57.50
2022-08-07T20:07:47.257Z,58.32
2022-08-07T20:10:35.525Z,58.59
2022-08-07T20:13:31.935Z,59.31
2022-08-07T20:16:04.491Z,59.79
2022-08-07T20:18:34.865Z,60.02
2022-08-07T20:21:14.359Z,60.65
2022-08-07T20:24:00.893Z,61.55
2022-08-07T20:26:44.927Z,61.34
2022-08-07T20:29:48.375Z,61.94
2022-08-07T20:32:11.225Z,62.49
2022-08-07T20:34:51.408Z,62.64
2022-08-07T20:37:33.929Z,63.57
2022-08-07T20:40:33.173Z,63.78
2022-08-07T20:43:02.111Z,64.13
2022-08-07T20:46:27.530Z,64.22
2022-08-07T20:48:30.349Z,64.68
2022-08-07T20:51:09.282Z,65.15
2022-08-07T20:54:04.580Z,64.95
2022-08-07T20:56:41.132Z,65.54
2022-08-07T21:00:05.519Z,65.93
2022-08-07T21:02:38.414Z,66.30
2022-08-07T21:05:25.562Z,66.44
2022-08-07T21:08:29.314Z,66.73
2022-08-07T21:11:14.615Z,67.65
2022-08-07T21:14:31.775Z,67.55
2022-08-07T21:18:01.015Z,68.19
2022-08-07T21:19:51.659Z,68.56
2022-08-07T21:22:39.023Z,69.16
2022-08-07T21:25:22.830Z,69.68
2022-08-07T21:28:53.557Z,70.02
2022-08-07T21:32:47.484Z,70.12
2022-08-07T21:35:15.167Z,69.91
2022-08-07T21:38:09.034Z,70.87
2022-08-07T21:41:00.083Z,70.68
2022-08-07T21:43:57.109Z,70.94
2022-08-07T21:46:55.340Z,71.66
2022-08-07T21:50:01.057Z,72.38
2022-08-07T21:53:08.519Z,72.60
2022-08-07T21:56:36.055Z,72.98
2022-08-07T22:00:04.924Z,73.66
2022-08-07T22:03:16.740Z,74.10
2022-08-07T22:06:00.498Z,74.51
2022-08-07T22:08:42.554Z,75.54
2022-08-07T22:11:17.014Z,75.54
2022-08-07T22:13:55.201Z,75.51
2022-08-07T22:16:58.267Z,76.61
2022-08-07T22:20:01.230Z,77.05
2022-08-07T22:22:48.471Z,76.64
2022-08-07T22:26:11.644Z,77.25
2022-08-07T22:29:08.744Z,78.14
2022-08-07T22:31:59.984Z,78.49
2022-08-07T22:34:54.331Z,79.61
2022-08-07T22:38:13.421Z,79.48
2022-08-07T22:41:20.854Z,79.93
2022-08-07T22:44:08.320Z,80.73
2022-08-07T22:47:23.145Z,81.00
2022-08-07T22:50:41.274Z,81.52
2022-08-07T22:54:06.562Z,82.32
2022-08-07T22:57:16.812Z,83.49
2022-08-07T23:00:14.206Z,83.91
2022-08-07T23:03:29.868Z,84.18
2022-08-07T23:06:53.322Z,84.70
2022-08-07T23:10:05.914Z,85.71
2022-08-07T23:13:19.418Z,86.19
2022-08-07T23:16:48.333Z,87.16
2022-08-07T23:19:52.076Z,87.45
2022-08-07T23:22:58.172Z,87.88
2022-08-07T23:26:18.298Z,88.33
2022-08-07T23:29:43.679Z,89.36
2022-08-07T23:34:35.102Z,89.64
2022-08-07T23:37:19.877Z,91.09
2022-08-07T23:40:23.905Z,91.22
2022-08-07T23:43:22.901Z,91.78
2022-08-07T23:47:00.014Z,91.45
2022-08-07T23:50:11.871Z,92.15
2022-08-07T23:53:21.282Z,92.24
2022-08-07T23:56:31.342Z,92.64
